<?xml version='1.0' encoding='UTF-8' standalone='yes' ?>
<gpx version="1.1" creator="nl.sogeti.android.gpstracker" xsi:schemaLocation="http://www.topografix.com/GPX/1/1 http://www.topografix.com/gpx/1/1/gpx.xsd" xmlns="http://www.topografix.com/GPX/1/1" xmlns:xsi="http://www.w3.org/2001/XMLSchema-instance" xmlns:gpx10="http://www.topografix.com/GPX/1/0" xmlns:ogt10="http://gpstracker.android.sogeti.nl/GPX/1/0">
<metadata>
<time>2011-04-23T06:27:59Z</time>
</metadata>
<trk>
<name>Track 2011-04-23 08:56</name>
<trkseg>
<trkpt lat="47.74682879447937" lon="15.769731402397156">
<ele>593.0</ele>
<time>2011-04-23T08:08:58Z</time>
<extensions>
<gpx10:speed>1.25</gpx10:speed>
<ogt10:accuracy>4.0</ogt10:accuracy>
<gpx10:course>330.8203125</gpx10:course></extensions>
</trkpt>
<trkpt lat="47.747236490249634" lon="15.769436359405518">
<ele>590.0</ele>
<time>2011-04-23T08:09:38Z</time>
<extensions>
<gpx10:speed>1.0</gpx10:speed>
<ogt10:accuracy>2.0</ogt10:accuracy>
<gpx10:course>326.6015625</gpx10:course></extensions>
</trkpt>
<trkpt lat="47.74755299091339" lon="15.768948197364807">
<ele>588.0</ele>
<time>2011-04-23T08:10:20Z</time>
<extensions>
<gpx10:speed>1.0</gpx10:speed>
<ogt10:accuracy>4.0</ogt10:accuracy>
<gpx10:course>318.515625</gpx10:course></extensions>
</trkpt>
<trkpt lat="47.74782121181488" lon="15.768406391143799">
<ele>596.0</ele>
<time>2011-04-23T08:10:58Z</time>
<extensions>
<gpx10:speed>1.820027470588684</gpx10:speed>
<ogt10:accuracy>4.0</ogt10:accuracy>
<gpx10:course>341.015625</gpx10:course></extensions>
</trkpt>
<trkpt lat="47.74827182292938" lon="15.76837420463562">
<ele>603.0</ele>
<time>2011-04-23T08:11:39Z</time>
<extensions>
<gpx10:speed>0.7071067690849304</gpx10:speed>
<ogt10:accuracy>6.0</ogt10:accuracy>
<gpx10:course>34.8046875</gpx10:course></extensions>
</trkpt>
<trkpt lat="47.748722434043884" lon="15.768401026725769">
<ele>616.0</ele>
<time>2011-04-23T08:13:02Z</time>
<extensions>
<ogt10:accuracy>16.0</ogt10:accuracy>
<gpx10:course>358.9453125</gpx10:course></extensions>
</trkpt>
<trkpt lat="47.74903357028961" lon="15.76888918876648">
<ele>616.0</ele>
<time>2011-04-23T08:14:09Z</time>
<extensions>
<gpx10:speed>1.0</gpx10:speed>
<ogt10:accuracy>16.0</ogt10:accuracy>
<gpx10:course>17.578125</gpx10:course></extensions>
</trkpt>
<trkpt lat="47.749435901641846" lon="15.769232511520386">
<ele>633.0</ele>
<time>2011-04-23T08:15:23Z</time>
<extensions>
<gpx10:speed>1.0</gpx10:speed>
<ogt10:accuracy>16.0</ogt10:accuracy>
<gpx10:course>358.9453125</gpx10:course></extensions>
</trkpt>
<trkpt lat="47.749725580215454" lon="15.769752860069275">
<ele>630.0</ele>
<time>2011-04-23T08:16:40Z</time>
<extensions>
<gpx10:speed>0.75</gpx10:speed>
<ogt10:accuracy>48.0</ogt10:accuracy>
<gpx10:course>29.8828125</gpx10:course></extensions>
</trkpt>
<trkpt lat="47.750181555747986" lon="15.769849419593811">
<ele>630.0</ele>
<time>2011-04-23T08:17:32Z</time>
<extensions>
<ogt10:accuracy>48.0</ogt10:accuracy>
<gpx10:course>4.921875</gpx10:course></extensions>
</trkpt>
<trkpt lat="47.75061070919037" lon="15.76962947845459">
<ele>630.0</ele>
<time>2011-04-23T08:18:11Z</time>
<extensions>
<ogt10:accuracy>24.0</ogt10:accuracy>
<gpx10:course>346.9921875</gpx10:course></extensions>
</trkpt>
<trkpt lat="47.75103986263275" lon="15.76989233493805">
<ele>632.0</ele>
<time>2011-04-23T08:19:31Z</time>
<extensions>
<gpx10:speed>0.5</gpx10:speed>
<ogt10:accuracy>16.0</ogt10:accuracy>
<gpx10:course>35.15625</gpx10:course></extensions>
</trkpt>
<trkpt lat="47.75140464305878" lon="15.770283937454224">
<ele>626.0</ele>
<time>2011-04-23T08:21:04Z</time>
<extensions>
<ogt10:accuracy>16.0</ogt10:accuracy>
<gpx10:course>146.953125</gpx10:course></extensions>
</trkpt>
</trkseg>
<trkseg>
<trkpt lat="47.75159239768982" lon="15.770444869995117">
<ele>681.0</ele>
<time>2011-04-23T08:25:26Z</time>
<extensions>
<ogt10:accuracy>8.0</ogt10:accuracy>
<gpx10:course>18.28125</gpx10:course></extensions>
</trkpt>
<trkpt lat="47.75203227996826" lon="15.77064335346222">
<ele>709.0</ele>
<time>2011-04-23T08:27:50Z</time>
<extensions>
<gpx10:speed>0.75</gpx10:speed>
<ogt10:accuracy>16.0</ogt10:accuracy>
<gpx10:course>25.3125</gpx10:course></extensions>
</trkpt>
<trkpt lat="47.75248825550079" lon="15.770568251609802">
<ele>736.0</ele>
<time>2011-04-23T08:29:42Z</time>
<extensions>
<gpx10:speed>0.25</gpx10:speed>
<ogt10:accuracy>12.0</ogt10:accuracy>
<gpx10:course>13.0078125</gpx10:course></extensions>
</trkpt>
<trkpt lat="47.752944231033325" lon="15.770434141159058">
<ele>751.0</ele>
<time>2011-04-23T08:30:45Z</time>
<extensions>
<ogt10:accuracy>12.0</ogt10:accuracy>
<gpx10:course>342.0703125</gpx10:course></extensions>
</trkpt>
<trkpt lat="47.75341093540192" lon="15.770562887191772">
<ele>767.0</ele>
<time>2011-04-23T08:32:49Z</time>
<extensions>
<gpx10:speed>0.5</gpx10:speed>
<ogt10:accuracy>8.0</ogt10:accuracy>
<gpx10:course>342.0703125</gpx10:course></extensions>
</trkpt>
<trkpt lat="47.75386154651642" lon="15.770498514175415">
<ele>759.0</ele>
<time>2011-04-23T08:34:38Z</time>
<extensions>
<ogt10:accuracy>6.0</ogt10:accuracy>
<gpx10:course>342.0703125</gpx10:course></extensions>
</trkpt>
<trkpt lat="47.754183411598206" lon="15.770031809806824">
<ele>766.0</ele>
<time>2011-04-23T08:36:26Z</time>
<extensions>
<ogt10:accuracy>12.0</ogt10:accuracy>
<gpx10:course>339.9609375</gpx10:course></extensions>
</trkpt>
<trkpt lat="47.75461792945862" lon="15.769806504249573">
<ele>778.0</ele>
<time>2011-04-23T08:37:22Z</time>
<extensions>
<gpx10:speed>1.0</gpx10:speed>
<ogt10:accuracy>12.0</ogt10:accuracy>
<gpx10:course>20.0390625</gpx10:course></extensions>
</trkpt>
<trkpt lat="47.75507926940918" lon="15.769811868667603">
<ele>786.0</ele>
<time>2011-04-23T08:39:07Z</time>
<extensions>
<ogt10:accuracy>24.0</ogt10:accuracy>
<gpx10:course>354.7265625</gpx10:course></extensions>
</trkpt>
<trkpt lat="47.75583565235138" lon="15.77085256576538">
<ele>788.0</ele>
<time>2011-04-23T08:44:50Z</time>
<extensions>
<ogt10:accuracy>48.0</ogt10:accuracy>
<gpx10:course>55.546875</gpx10:course></extensions>
</trkpt>
<trkpt lat="47.75578200817108" lon="15.771549940109253">
<ele>815.0</ele>
<time>2011-04-23T08:47:50Z</time>
<extensions>
<gpx10:speed>0.5</gpx10:speed>
<ogt10:accuracy>48.0</ogt10:accuracy>
<gpx10:course>13.0078125</gpx10:course></extensions>
</trkpt>
</trkseg>
<trkseg>
<trkpt lat="47.756710052490234" lon="15.771646499633789">
<ele>837.0</ele>
<time>2011-04-23T08:53:56Z</time>
<extensions>
<ogt10:accuracy>48.0</ogt10:accuracy>
<gpx10:course>356.1328125</gpx10:course></extensions>
</trkpt>
<trkpt lat="47.756935358047485" lon="15.772241950035095">
<ele>921.0</ele>
<time>2011-04-23T08:59:12Z</time>
<extensions>
<gpx10:speed>1.5</gpx10:speed>
<ogt10:accuracy>32.0</ogt10:accuracy>
<gpx10:course>357.5390625</gpx10:course></extensions>
</trkpt>
<trkpt lat="47.75728940963745" lon="15.772671103477478">
<ele>964.0</ele>
<time>2011-04-23T09:02:03Z</time>
<extensions>
<ogt10:accuracy>32.0</ogt10:accuracy>
<gpx10:course>354.0234375</gpx10:course></extensions>
</trkpt>
</trkseg>
<trkseg>
<trkpt lat="47.75784194469452" lon="15.772966146469116">
<ele>977.0</ele>
<time>2011-04-23T09:11:04Z</time>
<extensions>
<gpx10:speed>1.0</gpx10:speed>
<ogt10:accuracy>24.0</ogt10:accuracy>
<gpx10:course>8.4375</gpx10:course></extensions>
</trkpt>
<trkpt lat="47.758158445358276" lon="15.773443579673767">
<ele>977.0</ele>
<time>2011-04-23T09:12:26Z</time>
<extensions>
<gpx10:speed>1.0</gpx10:speed>
<ogt10:accuracy>16.0</ogt10:accuracy>
<gpx10:course>49.21875</gpx10:course></extensions>
</trkpt>
</trkseg>
<trkseg>
<trkpt lat="47.75809943675995" lon="15.77363669872284">
<ele>973.0</ele>
<time>2011-04-23T09:25:26Z</time>
<extensions>
<ogt10:accuracy>32.0</ogt10:accuracy>
<gpx10:course>80.15625</gpx10:course></extensions>
</trkpt>
</trkseg>
<trkseg>
<trkpt lat="47.75824964046478" lon="15.773550868034363">
<ele>970.0</ele>
<time>2011-04-23T09:37:26Z</time>
<extensions>
<ogt10:accuracy>48.0</ogt10:accuracy>
<gpx10:course>80.15625</gpx10:course></extensions>
</trkpt>
<trkpt lat="47.75836765766144" lon="15.774199962615967">
<ele>963.0</ele>
<time>2011-04-23T09:39:55Z</time>
<extensions>
<gpx10:speed>1.0</gpx10:speed>
<ogt10:accuracy>24.0</ogt10:accuracy>
<gpx10:course>40.078125</gpx10:course></extensions>
</trkpt>
<trkpt lat="47.75885581970215" lon="15.774323344230652">
<ele>989.0</ele>
<time>2011-04-23T09:43:00Z</time>
<link href="Picture_2011-04-23_114553.jpg"><text>Picture_2011-04-23_114553.jpg</text></link>
<extensions>
<gpx10:speed>0.5</gpx10:speed>
<ogt10:accuracy>32.0</ogt10:accuracy>
<gpx10:course>42.1875</gpx10:course></extensions>
</trkpt>
<trkpt lat="47.75934934616089" lon="15.77438771724701">
<ele>1003.0</ele>
<time>2011-04-23T09:48:16Z</time>
<extensions>
<ogt10:accuracy>24.0</ogt10:accuracy>
<gpx10:course>23.5546875</gpx10:course></extensions>
</trkpt>
<trkpt lat="47.7597838640213" lon="15.774725675582886">
<ele>1015.0</ele>
<time>2011-04-23T09:49:13Z</time>
<extensions>
<ogt10:accuracy>24.0</ogt10:accuracy>
<gpx10:course>18.28125</gpx10:course></extensions>
</trkpt>
<trkpt lat="47.76022911071777" lon="15.774897336959839">
<ele>1026.0</ele>
<time>2011-04-23T09:50:49Z</time>
<extensions>
<ogt10:accuracy>24.0</ogt10:accuracy>
<gpx10:course>30.5859375</gpx10:course></extensions>
</trkpt>
<trkpt lat="47.760679721832275" lon="15.775095820426941">
<ele>1037.0</ele>
<time>2011-04-23T09:52:21Z</time>
<extensions>
<gpx10:speed>1.0</gpx10:speed>
<ogt10:accuracy>48.0</ogt10:accuracy>
<gpx10:course>21.09375</gpx10:course></extensions>
</trkpt>
</trkseg>
<trkseg>
<trkpt lat="47.7623051404953" lon="15.776029229164124">
<ele>1081.0</ele>
<time>2011-04-23T09:58:47Z</time>
<extensions>
<ogt10:accuracy>48.0</ogt10:accuracy>
<gpx10:course>334.3359375</gpx10:course></extensions>
</trkpt>
<trkpt lat="47.76277720928192" lon="15.77612578868866">
<ele>1078.0</ele>
<time>2011-04-23T09:59:55Z</time>
<extensions>
<gpx10:speed>1.25</gpx10:speed>
<ogt10:accuracy>32.0</ogt10:accuracy>
<gpx10:course>9.4921875</gpx10:course></extensions>
</trkpt>
</trkseg>
<trkseg>
<trkpt lat="47.76305079460144" lon="15.777740478515625">
<ele>1112.0</ele>
<time>2011-04-23T10:09:34Z</time>
<extensions>
<ogt10:accuracy>48.0</ogt10:accuracy>
<gpx10:course>354.375</gpx10:course></extensions>
</trkpt>
<trkpt lat="47.76336193084717" lon="15.778255462646484">
<ele>1138.0</ele>
<time>2011-04-23T10:11:32Z</time>
<extensions>
<gpx10:speed>1.0</gpx10:speed>
<ogt10:accuracy>32.0</ogt10:accuracy>
<gpx10:course>8.4375</gpx10:course></extensions>
</trkpt>
</trkseg>
<trkseg>
<trkpt lat="47.76413977146149" lon="15.77860414981842">
<ele>1179.0</ele>
<time>2011-04-23T10:18:17Z</time>
<extensions>
<gpx10:speed>1.5</gpx10:speed>
<ogt10:accuracy>16.0</ogt10:accuracy>
<gpx10:course>4.5703125</gpx10:course></extensions>
</trkpt>
<trkpt lat="47.7645742893219" lon="15.778791904449463">
<ele>1195.0</ele>
<time>2011-04-23T10:20:11Z</time>
<extensions>
<ogt10:accuracy>12.0</ogt10:accuracy>
<gpx10:course>22.8515625</gpx10:course></extensions>
</trkpt>
<trkpt lat="47.76500344276428" lon="15.779049396514893">
<ele>1214.0</ele>
<time>2011-04-23T10:23:40Z</time>
<extensions>
<ogt10:accuracy>6.0</ogt10:accuracy>
<gpx10:course>8.7890625</gpx10:course></extensions>
</trkpt>
<trkpt lat="47.765454053878784" lon="15.77911376953125">
<ele>1221.0</ele>
<time>2011-04-23T10:25:26Z</time>
<extensions>
<gpx10:speed>0.7071067690849304</gpx10:speed>
<ogt10:accuracy>3.0</ogt10:accuracy>
<gpx10:course>358.9453125</gpx10:course></extensions>
</trkpt>
<trkpt lat="47.765899300575256" lon="15.779231786727905">
<ele>1232.0</ele>
<time>2011-04-23T10:27:09Z</time>
<extensions>
<gpx10:speed>0.7071067690849304</gpx10:speed>
<ogt10:accuracy>3.0</ogt10:accuracy>
<gpx10:course>28.4765625</gpx10:course></extensions>
</trkpt>
<trkpt lat="47.76626408100128" lon="15.77963411808014">
<ele>1252.0</ele>
<time>2011-04-23T10:30:36Z</time>
<extensions>
<gpx10:speed>0.5</gpx10:speed>
<ogt10:accuracy>3.0</ogt10:accuracy>
<gpx10:course>321.6796875</gpx10:course></extensions>
</trkpt>
<trkpt lat="47.766714692115784" lon="15.779752135276794">
<ele>1263.0</ele>
<time>2011-04-23T10:34:18Z</time>
<extensions>
<ogt10:accuracy>12.0</ogt10:accuracy>
<gpx10:course>21.09375</gpx10:course></extensions>
</trkpt>
<trkpt lat="47.767149209976196" lon="15.779945254325867">
<ele>1279.0</ele>
<time>2011-04-23T10:35:35Z</time>
<extensions>
<gpx10:speed>0.5</gpx10:speed>
<ogt10:accuracy>4.0</ogt10:accuracy>
<gpx10:course>3.1640625</gpx10:course></extensions>
</trkpt>
<trkpt lat="47.767412066459656" lon="15.780513882637024">
<ele>1293.0</ele>
<time>2011-04-23T10:37:40Z</time>
<extensions>
<gpx10:speed>0.5</gpx10:speed>
<ogt10:accuracy>8.0</ogt10:accuracy>
<gpx10:course>139.5703125</gpx10:course></extensions>
</trkpt>
<trkpt lat="47.767680287361145" lon="15.781055688858032">
<ele>1319.0</ele>
<time>2011-04-23T10:39:23Z</time>
<extensions>
<gpx10:speed>0.75</gpx10:speed>
<ogt10:accuracy>8.0</ogt10:accuracy>
<gpx10:course>84.7265625</gpx10:course></extensions>
</trkpt>
<trkpt lat="47.767937779426575" lon="15.780503153800964">
<ele>1343.0</ele>
<time>2011-04-23T10:42:37Z</time>
<extensions>
<gpx10:speed>0.5</gpx10:speed>
<ogt10:accuracy>6.0</ogt10:accuracy>
<gpx10:course>297.421875</gpx10:course></extensions>
</trkpt>
<trkpt lat="47.76829183101654" lon="15.780079364776611">
<ele>1363.0</ele>
<time>2011-04-23T10:45:21Z</time>
<extensions>
<gpx10:speed>0.75</gpx10:speed>
<ogt10:accuracy>3.0</ogt10:accuracy>
<gpx10:course>338.203125</gpx10:course></extensions>
</trkpt>
<trkpt lat="47.7686083316803" lon="15.780556797981262">
<ele>1369.0</ele>
<time>2011-04-23T10:47:48Z</time>
<extensions>
<ogt10:accuracy>3.0</ogt10:accuracy>
<gpx10:course>78.046875</gpx10:course></extensions>
</trkpt>
<trkpt lat="47.768903374671936" lon="15.781061053276062">
<ele>1383.0</ele>
<time>2011-04-23T10:49:42Z</time>
<extensions>
<ogt10:accuracy>3.0</ogt10:accuracy>
<gpx10:course>65.390625</gpx10:course></extensions>
</trkpt>
<trkpt lat="47.76913940906525" lon="15.78162968158722">
<ele>1397.0</ele>
<time>2011-04-23T10:51:45Z</time>
<extensions>
<gpx10:speed>0.7071067690849304</gpx10:speed>
<ogt10:accuracy>3.0</ogt10:accuracy>
<gpx10:course>60.8203125</gpx10:course></extensions>
</trkpt>
<trkpt lat="47.76938617229462" lon="15.782198309898376">
<ele>1409.0</ele>
<time>2011-04-23T10:53:34Z</time>
<extensions>
<gpx10:speed>1.25</gpx10:speed>
<ogt10:accuracy>3.0</ogt10:accuracy>
<gpx10:course>24.9609375</gpx10:course></extensions>
</trkpt>
<trkpt lat="47.76963293552399" lon="15.782761573791504">
<ele>1427.0</ele>
<time>2011-04-23T10:55:45Z</time>
<extensions>
<gpx10:speed>0.75</gpx10:speed>
<ogt10:accuracy>3.0</ogt10:accuracy>
<gpx10:course>31.2890625</gpx10:course></extensions>
</trkpt>
</trkseg>
<trkseg>
<trkpt lat="47.76963293552399" lon="15.782724022865295">
<ele>1429.0</ele>
<time>2011-04-23T12:07:22Z</time>
<link href="Picture_2011-04-23_140800.jpg"><text>Picture_2011-04-23_140800.jpg</text></link>
<extensions>
<ogt10:accuracy>4.0</ogt10:accuracy>
<gpx10:course>68.203125</gpx10:course></extensions>
</trkpt>
</trkseg>
<trkseg>
<trkpt lat="47.76954174041748" lon="15.782713294029236">
<ele>1421.0</ele>
<time>2011-04-23T12:11:22Z</time>
<extensions>
<gpx10:speed>0.5</gpx10:speed>
<ogt10:accuracy>4.0</ogt10:accuracy>
<gpx10:course>252.0703125</gpx10:course></extensions>
</trkpt>
<trkpt lat="47.76926279067993" lon="15.782176852226257">
<ele>1404.0</ele>
<time>2011-04-23T12:13:25Z</time>
<extensions>
<gpx10:speed>0.5</gpx10:speed>
<ogt10:accuracy>6.0</ogt10:accuracy>
<gpx10:course>242.2265625</gpx10:course></extensions>
</trkpt>
<trkpt lat="47.769144773483276" lon="15.781506299972534">
<ele>1382.0</ele>
<time>2011-04-23T12:15:38Z</time>
<extensions>
<gpx10:speed>0.7071067690849304</gpx10:speed>
<ogt10:accuracy>4.0</ogt10:accuracy>
<gpx10:course>246.09375</gpx10:course></extensions>
</trkpt>
<trkpt lat="47.7688068151474" lon="15.781050324440002">
<ele>1371.0</ele>
<time>2011-04-23T12:19:30Z</time>
<extensions>
<gpx10:speed>0.5</gpx10:speed>
<ogt10:accuracy>4.0</ogt10:accuracy>
<gpx10:course>251.015625</gpx10:course></extensions>
</trkpt>
<trkpt lat="47.76852250099182" lon="15.780529975891113">
<ele>1356.0</ele>
<time>2011-04-23T12:21:12Z</time>
<extensions>
<ogt10:accuracy>4.0</ogt10:accuracy>
<gpx10:course>182.4609375</gpx10:course></extensions>
</trkpt>
<trkpt lat="47.76814162731171" lon="15.780165195465088">
<ele>1326.0</ele>
<time>2011-04-23T12:23:26Z</time>
<extensions>
<gpx10:speed>0.25</gpx10:speed>
<ogt10:accuracy>4.0</ogt10:accuracy>
<gpx10:course>215.5078125</gpx10:course></extensions>
</trkpt>
<trkpt lat="47.7679967880249" lon="15.780803561210632">
<ele>1322.0</ele>
<time>2011-04-23T12:25:09Z</time>
<extensions>
<ogt10:accuracy>8.0</ogt10:accuracy>
<gpx10:course>89.296875</gpx10:course></extensions>
</trkpt>
<trkpt lat="47.76759445667267" lon="15.78110933303833">
<ele>1317.0</ele>
<time>2011-04-23T12:26:45Z</time>
<extensions>
<gpx10:speed>1.4142135381698608</gpx10:speed>
<ogt10:accuracy>6.0</ogt10:accuracy>
<gpx10:course>234.140625</gpx10:course></extensions>
</trkpt>
<trkpt lat="47.76736915111542" lon="15.780524611473083">
<ele>1281.0</ele>
<time>2011-04-23T12:28:00Z</time>
<extensions>
<gpx10:speed>0.75</gpx10:speed>
<ogt10:accuracy>6.0</ogt10:accuracy>
<gpx10:course>241.5234375</gpx10:course></extensions>
</trkpt>
<trkpt lat="47.76712238788605" lon="15.779966711997986">
<ele>1276.0</ele>
<time>2011-04-23T12:32:01Z</time>
<extensions>
<gpx10:speed>0.75</gpx10:speed>
<ogt10:accuracy>8.0</ogt10:accuracy>
<gpx10:course>244.3359375</gpx10:course></extensions>
</trkpt>
<trkpt lat="47.766671776771545" lon="15.779918432235718">
<ele>1268.0</ele>
<time>2011-04-23T12:33:14Z</time>
<extensions>
<gpx10:speed>0.5</gpx10:speed>
<ogt10:accuracy>12.0</ogt10:accuracy>
<gpx10:course>175.4296875</gpx10:course></extensions>
</trkpt>
<trkpt lat="47.76622116565704" lon="15.779719948768616">
<ele>1242.0</ele>
<time>2011-04-23T12:34:51Z</time>
<extensions>
<gpx10:speed>1.0</gpx10:speed>
<ogt10:accuracy>3.0</ogt10:accuracy>
<gpx10:course>190.8984375</gpx10:course></extensions>
</trkpt>
<trkpt lat="47.76586711406708" lon="15.779296159744263">
<ele>1227.0</ele>
<time>2011-04-23T12:37:28Z</time>
<extensions>
<gpx10:speed>0.75</gpx10:speed>
<ogt10:accuracy>4.0</ogt10:accuracy>
<gpx10:course>209.53125</gpx10:course></extensions>
</trkpt>
<trkpt lat="47.765443325042725" lon="15.779033303260803">
<ele>1210.0</ele>
<time>2011-04-23T12:38:19Z</time>
<extensions>
<gpx10:speed>1.0</gpx10:speed>
<ogt10:accuracy>4.0</ogt10:accuracy>
<gpx10:course>212.6953125</gpx10:course></extensions>
</trkpt>
<trkpt lat="47.76500880718231" lon="15.778813362121582">
<ele>1208.0</ele>
<time>2011-04-23T12:39:01Z</time>
<extensions>
<gpx10:speed>1.25</gpx10:speed>
<ogt10:accuracy>4.0</ogt10:accuracy>
<gpx10:course>220.78125</gpx10:course></extensions>
</trkpt>
<trkpt lat="47.76476740837097" lon="15.778234004974365">
<ele>1203.0</ele>
<time>2011-04-23T12:39:55Z</time>
<extensions>
<gpx10:speed>1.0</gpx10:speed>
<ogt10:accuracy>4.0</ogt10:accuracy>
<gpx10:course>232.03125</gpx10:course></extensions>
</trkpt>
<trkpt lat="47.764413356781006" lon="15.777815580368042">
<ele>1197.0</ele>
<time>2011-04-23T12:40:38Z</time>
<extensions>
<gpx10:speed>0.9013878107070923</gpx10:speed>
<ogt10:accuracy>3.0</ogt10:accuracy>
<gpx10:course>225.3515625</gpx10:course></extensions>
</trkpt>
<trkpt lat="47.76410758495331" lon="15.777311325073242">
<ele>1193.0</ele>
<time>2011-04-23T12:41:19Z</time>
<extensions>
<gpx10:speed>1.25</gpx10:speed>
<ogt10:accuracy>3.0</ogt10:accuracy>
<gpx10:course>245.0390625</gpx10:course></extensions>
</trkpt>
<trkpt lat="47.76400029659271" lon="15.776646137237549">
<ele>1178.0</ele>
<time>2011-04-23T12:42:01Z</time>
<extensions>
<gpx10:speed>1.25</gpx10:speed>
<ogt10:accuracy>3.0</ogt10:accuracy>
<gpx10:course>249.9609375</gpx10:course></extensions>
</trkpt>
<trkpt lat="47.763705253601074" lon="15.77613115310669">
<ele>1180.0</ele>
<time>2011-04-23T12:42:47Z</time>
<extensions>
<gpx10:speed>1.25</gpx10:speed>
<ogt10:accuracy>3.0</ogt10:accuracy>
<gpx10:course>234.4921875</gpx10:course></extensions>
</trkpt>
<trkpt lat="47.76338875293732" lon="15.775648355484009">
<ele>1181.0</ele>
<time>2011-04-23T12:43:27Z</time>
<extensions>
<gpx10:speed>1.25</gpx10:speed>
<ogt10:accuracy>4.0</ogt10:accuracy>
<gpx10:course>205.3125</gpx10:course></extensions>
</trkpt>
<trkpt lat="47.76302397251129" lon="15.775208473205566">
<ele>1177.0</ele>
<time>2011-04-23T12:44:05Z</time>
<extensions>
<gpx10:speed>1.25</gpx10:speed>
<ogt10:accuracy>6.0</ogt10:accuracy>
<gpx10:course>203.203125</gpx10:course></extensions>
</trkpt>
<trkpt lat="47.762680649757385" lon="15.774773955345154">
<ele>1179.0</ele>
<time>2011-04-23T12:44:44Z</time>
<extensions>
<gpx10:speed>1.25</gpx10:speed>
<ogt10:accuracy>3.0</ogt10:accuracy>
<gpx10:course>223.9453125</gpx10:course></extensions>
</trkpt>
<trkpt lat="47.76236414909363" lon="15.774269700050354">
<ele>1166.0</ele>
<time>2011-04-23T12:45:29Z</time>
<extensions>
<gpx10:speed>1.6007810831069946</gpx10:speed>
<ogt10:accuracy>3.0</ogt10:accuracy>
<gpx10:course>230.2734375</gpx10:course></extensions>
</trkpt>
<trkpt lat="47.761945724487305" lon="15.773974657058716">
<ele>1158.0</ele>
<time>2011-04-23T12:46:14Z</time>
<extensions>
<gpx10:speed>1.5811388492584229</gpx10:speed>
<ogt10:accuracy>3.0</ogt10:accuracy>
<gpx10:course>208.4765625</gpx10:course></extensions>
</trkpt>
<trkpt lat="47.76158630847931" lon="15.773566961288452">
<ele>1152.0</ele>
<time>2011-04-23T12:47:07Z</time>
<extensions>
<gpx10:speed>0.5</gpx10:speed>
<ogt10:accuracy>4.0</ogt10:accuracy>
<gpx10:course>217.96875</gpx10:course></extensions>
</trkpt>
<trkpt lat="47.76113569736481" lon="15.773465037345886">
<ele>1142.0</ele>
<time>2011-04-23T12:48:56Z</time>
<extensions>
<gpx10:speed>0.5</gpx10:speed>
<ogt10:accuracy>4.0</ogt10:accuracy>
<gpx10:course>217.96875</gpx10:course></extensions>
</trkpt>
<trkpt lat="47.76078701019287" lon="15.773009061813354">
<ele>1115.0</ele>
<time>2011-04-23T12:50:36Z</time>
<extensions>
<gpx10:speed>0.75</gpx10:speed>
<ogt10:accuracy>6.0</ogt10:accuracy>
<gpx10:course>304.8046875</gpx10:course></extensions>
</trkpt>
<trkpt lat="47.76038467884064" lon="15.772703289985657">
<ele>1100.0</ele>
<time>2011-04-23T12:51:52Z</time>
<extensions>
<gpx10:speed>1.346291184425354</gpx10:speed>
<ogt10:accuracy>4.0</ogt10:accuracy>
<gpx10:course>237.65625</gpx10:course></extensions>
</trkpt>
<trkpt lat="47.76049733161926" lon="15.772054195404053">
<ele>1092.0</ele>
<time>2011-04-23T12:52:35Z</time>
<extensions>
<ogt10:accuracy>4.0</ogt10:accuracy>
<gpx10:course>327.3046875</gpx10:course></extensions>
</trkpt>
<trkpt lat="47.76051342487335" lon="15.77137291431427">
<ele>1083.0</ele>
<time>2011-04-23T12:54:14Z</time>
<extensions>
<gpx10:speed>0.75</gpx10:speed>
<ogt10:accuracy>6.0</ogt10:accuracy>
<gpx10:course>248.90625</gpx10:course></extensions>
</trkpt>
<trkpt lat="47.760223746299744" lon="15.770847201347351">
<ele>1064.0</ele>
<time>2011-04-23T12:55:19Z</time>
<extensions>
<gpx10:speed>1.0</gpx10:speed>
<ogt10:accuracy>6.0</ogt10:accuracy>
<gpx10:course>184.21875</gpx10:course></extensions>
</trkpt>
<trkpt lat="47.75978922843933" lon="15.770670175552368">
<ele>1053.0</ele>
<time>2011-04-23T12:56:20Z</time>
<extensions>
<gpx10:speed>0.75</gpx10:speed>
<ogt10:accuracy>6.0</ogt10:accuracy>
<gpx10:course>190.8984375</gpx10:course></extensions>
</trkpt>
<trkpt lat="47.75936543941498" lon="15.770900845527649">
<ele>1056.0</ele>
<time>2011-04-23T12:57:30Z</time>
<extensions>
<gpx10:speed>0.75</gpx10:speed>
<ogt10:accuracy>12.0</ogt10:accuracy>
<gpx10:course>181.40625</gpx10:course></extensions>
</trkpt>
<trkpt lat="47.758920192718506" lon="15.771008133888245">
<ele>1029.0</ele>
<time>2011-04-23T12:59:25Z</time>
<extensions>
<gpx10:speed>1.1180340051651</gpx10:speed>
<ogt10:accuracy>6.0</ogt10:accuracy>
<gpx10:course>175.4296875</gpx10:course></extensions>
</trkpt>
<trkpt lat="47.75849103927612" lon="15.770772099494934">
<ele>1024.0</ele>
<time>2011-04-23T13:00:24Z</time>
<extensions>
<gpx10:speed>1.0</gpx10:speed>
<ogt10:accuracy>6.0</ogt10:accuracy>
<gpx10:course>205.3125</gpx10:course></extensions>
</trkpt>
<trkpt lat="47.75804042816162" lon="15.770702362060547">
<ele>1019.0</ele>
<time>2011-04-23T13:01:09Z</time>
<extensions>
<gpx10:speed>1.9525624513626099</gpx10:speed>
<ogt10:accuracy>6.0</ogt10:accuracy>
<gpx10:course>184.5703125</gpx10:course></extensions>
</trkpt>
<trkpt lat="47.75836765766144" lon="15.771174430847168">
<ele>1009.0</ele>
<time>2011-04-23T13:02:17Z</time>
<extensions>
<gpx10:speed>0.9013878107070923</gpx10:speed>
<ogt10:accuracy>6.0</ogt10:accuracy>
<gpx10:course>48.1640625</gpx10:course></extensions>
</trkpt>
<trkpt lat="47.75806188583374" lon="15.771667957305908">
<ele>998.0</ele>
<time>2011-04-23T13:04:15Z</time>
<extensions>
<gpx10:speed>0.7071067690849304</gpx10:speed>
<ogt10:accuracy>6.0</ogt10:accuracy>
<gpx10:course>209.8828125</gpx10:course></extensions>
</trkpt>
<trkpt lat="47.75761663913727" lon="15.771769881248474">
<ele>989.0</ele>
<time>2011-04-23T13:05:19Z</time>
<extensions>
<gpx10:speed>0.75</gpx10:speed>
<ogt10:accuracy>6.0</ogt10:accuracy>
<gpx10:course>171.5625</gpx10:course></extensions>
</trkpt>
<trkpt lat="47.75714993476868" lon="15.771802067756653">
<ele>997.0</ele>
<time>2011-04-23T13:07:44Z</time>
<extensions>
<gpx10:speed>1.4142135381698608</gpx10:speed>
<ogt10:accuracy>8.0</ogt10:accuracy>
<gpx10:course>216.9140625</gpx10:course></extensions>
</trkpt>
<trkpt lat="47.75686025619507" lon="15.771281719207764">
<ele>986.0</ele>
<time>2011-04-23T13:08:57Z</time>
<extensions>
<gpx10:speed>0.75</gpx10:speed>
<ogt10:accuracy>4.0</ogt10:accuracy>
<gpx10:course>270.3515625</gpx10:course></extensions>
</trkpt>
<trkpt lat="47.756908535957336" lon="15.77060580253601">
<ele>963.0</ele>
<time>2011-04-23T13:09:43Z</time>
<extensions>
<ogt10:accuracy>6.0</ogt10:accuracy>
<gpx10:course>279.84375</gpx10:course></extensions>
</trkpt>
<trkpt lat="47.75681734085083" lon="15.769935250282288">
<ele>965.0</ele>
<time>2011-04-23T13:10:24Z</time>
<extensions>
<gpx10:speed>0.75</gpx10:speed>
<ogt10:accuracy>6.0</ogt10:accuracy>
<gpx10:course>244.3359375</gpx10:course></extensions>
</trkpt>
<trkpt lat="47.7566134929657" lon="15.769339799880981">
<ele>945.0</ele>
<time>2011-04-23T13:11:54Z</time>
<extensions>
<gpx10:speed>1.1180340051651</gpx10:speed>
<ogt10:accuracy>6.0</ogt10:accuracy>
<gpx10:course>178.2421875</gpx10:course></extensions>
</trkpt>
<trkpt lat="47.756431102752686" lon="15.768706798553467">
<ele>942.0</ele>
<time>2011-04-23T13:12:36Z</time>
<extensions>
<gpx10:speed>0.75</gpx10:speed>
<ogt10:accuracy>6.0</ogt10:accuracy>
<gpx10:course>258.3984375</gpx10:course></extensions>
</trkpt>
<trkpt lat="47.75631308555603" lon="15.768063068389893">
<ele>913.0</ele>
<time>2011-04-23T13:13:19Z</time>
<extensions>
<gpx10:speed>1.4142135381698608</gpx10:speed>
<ogt10:accuracy>4.0</ogt10:accuracy>
<gpx10:course>215.859375</gpx10:course></extensions>
</trkpt>
<trkpt lat="47.75624334812164" lon="15.7673978805542">
<ele>919.0</ele>
<time>2011-04-23T13:14:02Z</time>
<extensions>
<gpx10:speed>3.8078866004943848</gpx10:speed>
<ogt10:accuracy>8.0</ogt10:accuracy>
<gpx10:course>324.4921875</gpx10:course></extensions>
</trkpt>
<trkpt lat="47.755948305130005" lon="15.76687753200531">
<ele>928.0</ele>
<time>2011-04-23T13:14:47Z</time>
<extensions>
<gpx10:speed>1.0</gpx10:speed>
<ogt10:accuracy>4.0</ogt10:accuracy>
<gpx10:course>242.578125</gpx10:course></extensions>
</trkpt>
<trkpt lat="47.755701541900635" lon="15.766314268112183">
<ele>920.0</ele>
<time>2011-04-23T13:15:36Z</time>
<extensions>
<gpx10:speed>0.75</gpx10:speed>
<ogt10:accuracy>6.0</ogt10:accuracy>
<gpx10:course>233.0859375</gpx10:course></extensions>
</trkpt>
<trkpt lat="47.75528311729431" lon="15.766056776046753">
<ele>947.0</ele>
<time>2011-04-23T13:18:35Z</time>
<extensions>
<gpx10:speed>1.0</gpx10:speed>
<ogt10:accuracy>8.0</ogt10:accuracy>
<gpx10:course>185.2734375</gpx10:course></extensions>
</trkpt>
</trkseg>
<trkseg>
<trkpt lat="47.75532066822052" lon="15.765938758850098">
<ele>950.0</ele>
<time>2011-04-23T13:23:23Z</time>
<extensions>
<ogt10:accuracy>8.0</ogt10:accuracy>
<gpx10:course>185.2734375</gpx10:course></extensions>
</trkpt>
</trkseg>
<trkseg>
<trkpt lat="47.75527238845825" lon="15.765928030014038">
<ele>952.0</ele>
<time>2011-04-23T13:30:31Z</time>
<extensions>
<ogt10:accuracy>48.0</ogt10:accuracy>
<gpx10:course>185.2734375</gpx10:course></extensions>
</trkpt>
<trkpt lat="47.75501489639282" lon="15.766491293907166">
<ele>927.0</ele>
<time>2011-04-23T13:32:01Z</time>
<extensions>
<gpx10:speed>0.5</gpx10:speed>
<ogt10:accuracy>6.0</ogt10:accuracy>
<gpx10:course>78.75</gpx10:course></extensions>
</trkpt>
<trkpt lat="47.75456428527832" lon="15.766405463218689">
<ele>916.0</ele>
<time>2011-04-23T13:32:47Z</time>
<extensions>
<gpx10:speed>1.0</gpx10:speed>
<ogt10:accuracy>6.0</ogt10:accuracy>
<gpx10:course>193.359375</gpx10:course></extensions>
</trkpt>
</trkseg>
<trkseg>
<trkpt lat="47.75424778461456" lon="15.766405463218689">
<ele>910.0</ele>
<time>2011-04-23T13:33:54Z</time>
<extensions>
<gpx10:speed>0.75</gpx10:speed>
<ogt10:accuracy>6.0</ogt10:accuracy>
<gpx10:course>80.859375</gpx10:course></extensions>
</trkpt>
<trkpt lat="47.7543443441391" lon="15.7673978805542">
<ele>874.0</ele>
<time>2011-04-23T13:35:08Z</time>
<extensions>
<gpx10:speed>0.25</gpx10:speed>
<ogt10:accuracy>16.0</ogt10:accuracy>
<gpx10:course>119.1796875</gpx10:course></extensions>
</trkpt>
<trkpt lat="47.753931283950806" lon="15.767671465873718">
<ele>827.0</ele>
<time>2011-04-23T13:37:41Z</time>
<extensions>
<ogt10:accuracy>12.0</ogt10:accuracy>
<gpx10:course>144.4921875</gpx10:course></extensions>
</trkpt>
<trkpt lat="47.75358259677887" lon="15.768808722496033">
<ele>805.0</ele>
<time>2011-04-23T13:40:07Z</time>
<extensions>
<ogt10:accuracy>24.0</ogt10:accuracy>
<gpx10:course>171.9140625</gpx10:course></extensions>
</trkpt>
<trkpt lat="47.75309443473816" lon="15.769039392471313">
<ele>798.0</ele>
<time>2011-04-23T13:41:22Z</time>
<extensions>
<gpx10:speed>1.1180340051651</gpx10:speed>
<ogt10:accuracy>16.0</ogt10:accuracy>
<gpx10:course>168.75</gpx10:course></extensions>
</trkpt>
<trkpt lat="47.75232195854187" lon="15.76886236667633">
<ele>791.0</ele>
<time>2011-04-23T13:43:11Z</time>
<extensions>
<gpx10:speed>0.75</gpx10:speed>
<ogt10:accuracy>16.0</ogt10:accuracy>
<gpx10:course>235.1953125</gpx10:course></extensions>
</trkpt>
<trkpt lat="47.751688957214355" lon="15.768953561782837">
<ele>812.0</ele>
<time>2011-04-23T13:44:27Z</time>
<extensions>
<gpx10:speed>1.6770509481430054</gpx10:speed>
<ogt10:accuracy>24.0</ogt10:accuracy>
<gpx10:course>235.1953125</gpx10:course></extensions>
</trkpt>
<trkpt lat="47.75123834609985" lon="15.768905282020569">
<ele>751.0</ele>
<time>2011-04-23T13:45:49Z</time>
<extensions>
<gpx10:speed>0.75</gpx10:speed>
<ogt10:accuracy>8.0</ogt10:accuracy>
<gpx10:course>151.875</gpx10:course></extensions>
</trkpt>
<trkpt lat="47.750723361968994" lon="15.768658518791199">
<ele>774.0</ele>
<time>2011-04-23T13:46:55Z</time>
<extensions>
<gpx10:speed>0.5</gpx10:speed>
<ogt10:accuracy>16.0</ogt10:accuracy>
<gpx10:course>213.75</gpx10:course></extensions>
</trkpt>
<trkpt lat="47.750487327575684" lon="15.768046975135803">
<ele>732.0</ele>
<time>2011-04-23T13:48:09Z</time>
<extensions>
<gpx10:speed>1.0</gpx10:speed>
<ogt10:accuracy>16.0</ogt10:accuracy>
<gpx10:course>242.9296875</gpx10:course></extensions>
</trkpt>
<trkpt lat="47.75004744529724" lon="15.767832398414612">
<ele>738.0</ele>
<time>2011-04-23T13:49:25Z</time>
<extensions>
<gpx10:speed>0.9013878107070923</gpx10:speed>
<ogt10:accuracy>16.0</ogt10:accuracy>
<gpx10:course>206.3671875</gpx10:course></extensions>
</trkpt>
<trkpt lat="47.749419808387756" lon="15.767558813095093">
<ele>709.0</ele>
<time>2011-04-23T13:51:55Z</time>
<extensions>
<gpx10:speed>0.9013878107070923</gpx10:speed>
<ogt10:accuracy>16.0</ogt10:accuracy>
<gpx10:course>206.3671875</gpx10:course></extensions>
</trkpt>
<trkpt lat="47.74926424026489" lon="15.766925811767578">
<ele>724.0</ele>
<time>2011-04-23T13:53:13Z</time>
<extensions>
<ogt10:accuracy>12.0</ogt10:accuracy>
<gpx10:course>250.6640625</gpx10:course></extensions>
</trkpt>
<trkpt lat="47.7487975358963" lon="15.766797065734863">
<ele>675.0</ele>
<time>2011-04-23T13:55:49Z</time>
<extensions>
<ogt10:accuracy>16.0</ogt10:accuracy>
<gpx10:course>302.34375</gpx10:course></extensions>
</trkpt>
<trkpt lat="47.74833619594574" lon="15.766813158988953">
<ele>695.0</ele>
<time>2011-04-23T13:58:19Z</time>
<extensions>
<gpx10:speed>1.1180340051651</gpx10:speed>
<ogt10:accuracy>16.0</ogt10:accuracy>
<gpx10:course>91.0546875</gpx10:course></extensions>
</trkpt>
<trkpt lat="47.74812161922455" lon="15.767805576324463">
<ele>655.0</ele>
<time>2011-04-23T13:59:33Z</time>
<extensions>
<gpx10:speed>0.25</gpx10:speed>
<ogt10:accuracy>16.0</ogt10:accuracy>
<gpx10:course>109.3359375</gpx10:course></extensions>
</trkpt>
</trkseg>
<trkseg>
<trkpt lat="47.74812161922455" lon="15.767955780029297">
<ele>596.0</ele>
<time>2011-04-23T14:33:55Z</time>
<extensions>
<ogt10:accuracy>24.0</ogt10:accuracy></extensions>
</trkpt>
<trkpt lat="47.74788022041321" lon="15.768551230430603">
<ele>611.0</ele>
<time>2011-04-23T14:36:24Z</time>
<extensions>
<gpx10:speed>1.75</gpx10:speed>
<ogt10:accuracy>24.0</ogt10:accuracy>
<gpx10:course>140.9765625</gpx10:course></extensions>
</trkpt>
<trkpt lat="47.74754226207733" lon="15.769017934799194">
<ele>622.0</ele>
<time>2011-04-23T14:36:58Z</time>
<extensions>
<gpx10:speed>1.5</gpx10:speed>
<ogt10:accuracy>16.0</ogt10:accuracy>
<gpx10:course>136.7578125</gpx10:course></extensions>
</trkpt>
<trkpt lat="47.74739742279053" lon="15.769656300544739">
<ele>634.0</ele>
<time>2011-04-23T14:37:41Z</time>
<extensions>
<gpx10:speed>1.0</gpx10:speed>
<ogt10:accuracy>24.0</ogt10:accuracy>
<gpx10:course>127.96875</gpx10:course></extensions>
</trkpt>
<trkpt lat="47.74709165096283" lon="15.770230293273926">
<ele>657.0</ele>
<time>2011-04-23T14:38:22Z</time>
<extensions>
<gpx10:speed>1.75</gpx10:speed>
<ogt10:accuracy>24.0</ogt10:accuracy>
<gpx10:course>129.375</gpx10:course></extensions>
</trkpt>
<trkpt lat="47.74665176868439" lon="15.769972801208496">
<ele>626.0</ele>
<time>2011-04-23T14:42:16Z</time>
<extensions>
<gpx10:speed>0.75</gpx10:speed>
<ogt10:accuracy>48.0</ogt10:accuracy>
<gpx10:course>16.5234375</gpx10:course></extensions>
</trkpt>
</trkseg>
</trk>
</gpx>